sensor_id;sensor_type;location;lat;lon;timestamp;P1;durP1;ratioP1;P2;durP2;ratioP2
67869;SDS011;54673;52.262;6.830;2023-03-12T00:01:37;6.57;;;4.13;;
67869;SDS011;54673;52.262;6.830;2023-03-12T00:04:04;5.18;;;3.72;;
67869;SDS011;54673;52.262;6.830;2023-03-12T00:06:30;5.40;;;3.57;;
67869;SDS011;54673;52.262;6.830;2023-03-12T00:08:56;4.20;;;3.40;;
67869;SDS011;54673;52.262;6.830;2023-03-12T00:11:25;5.55;;;3.75;;
67869;SDS011;54673;52.262;6.830;2023-03-12T00:13:52;5.17;;;3.37;;
67869;SDS011;54673;52.262;6.830;2023-03-12T00:16:19;5.25;;;3.30;;
67869;SDS011;54673;52.262;6.830;2023-03-12T00:18:46;4.20;;;3.07;;
67869;SDS011;54673;52.262;6.830;2023-03-12T00:21:13;5.60;;;3.50;;
67869;SDS011;54673;52.262;6.830;2023-03-12T00:23:38;4.45;;;3.38;;
67869;SDS011;54673;52.262;6.830;2023-03-12T00:26:09;4.57;;;3.17;;
67869;SDS011;54673;52.262;6.830;2023-03-12T00:28:36;4.10;;;3.00;;
67869;SDS011;54673;52.262;6.830;2023-03-12T00:31:02;4.43;;;3.00;;
67869;SDS011;54673;52.262;6.830;2023-03-12T00:33:37;5.43;;;3.35;;
67869;SDS011;54673;52.262;6.830;2023-03-12T00:36:03;4.23;;;3.20;;
67869;SDS011;54673;52.262;6.830;2023-03-12T00:38:28;5.00;;;3.10;;
67869;SDS011;54673;52.262;6.830;2023-03-12T00:40:54;3.87;;;3.20;;
67869;SDS011;54673;52.262;6.830;2023-03-12T00:43:20;4.60;;;3.17;;
67869;SDS011;54673;52.262;6.830;2023-03-12T00:45:45;4.60;;;3.40;;
67869;SDS011;54673;52.262;6.830;2023-03-12T00:48:11;4.93;;;3.40;;
67869;SDS011;54673;52.262;6.830;2023-03-12T00:50:36;4.85;;;3.05;;
67869;SDS011;54673;52.262;6.830;2023-03-12T00:53:02;4.67;;;3.13;;
67869;SDS011;54673;52.262;6.830;2023-03-12T00:55:28;4.75;;;3.28;;
67869;SDS011;54673;52.262;6.830;2023-03-12T00:57:53;4.20;;;3.10;;
67869;SDS011;54673;52.262;6.830;2023-03-12T01:00:19;4.20;;;3.23;;
67869;SDS011;54673;52.262;6.830;2023-03-12T01:02:45;4.65;;;3.28;;
67869;SDS011;54673;52.262;6.830;2023-03-12T01:05:11;4.60;;;3.03;;
67869;SDS011;54673;52.262;6.830;2023-03-12T01:07:37;3.97;;;2.95;;
67869;SDS011;54673;52.262;6.830;2023-03-12T01:10:03;4.43;;;3.25;;
67869;SDS011;54673;52.262;6.830;2023-03-12T01:12:29;4.10;;;3.10;;
67869;SDS011;54673;52.262;6.830;2023-03-12T01:14:55;3.47;;;2.72;;
67869;SDS011;54673;52.262;6.830;2023-03-12T01:17:20;3.50;;;3.10;;
67869;SDS011;54673;52.262;6.830;2023-03-12T01:19:46;4.47;;;3.30;;
67869;SDS011;54673;52.262;6.830;2023-03-12T01:22:11;5.65;;;3.47;;
67869;SDS011;54673;52.262;6.830;2023-03-12T01:24:37;5.10;;;3.10;;
67869;SDS011;54673;52.262;6.830;2023-03-12T01:27:03;3.67;;;2.83;;
67869;SDS011;54673;52.262;6.830;2023-03-12T01:29:28;4.00;;;3.07;;
67869;SDS011;54673;52.262;6.830;2023-03-12T01:31:54;3.88;;;3.13;;
67869;SDS011;54673;52.262;6.830;2023-03-12T01:34:20;3.57;;;3.07;;
67869;SDS011;54673;52.262;6.830;2023-03-12T01:36:45;4.18;;;3.15;;
67869;SDS011;54673;52.262;6.830;2023-03-12T01:39:12;4.43;;;3.20;;
67869;SDS011;54673;52.262;6.830;2023-03-12T01:41:38;5.05;;;3.20;;
67869;SDS011;54673;52.262;6.830;2023-03-12T01:44:04;4.13;;;3.00;;
67869;SDS011;54673;52.262;6.830;2023-03-12T01:46:31;4.93;;;3.15;;
67869;SDS011;54673;52.262;6.830;2023-03-12T01:49:05;3.53;;;2.90;;
67869;SDS011;54673;52.262;6.830;2023-03-12T01:51:41;4.77;;;3.40;;
67869;SDS011;54673;52.262;6.830;2023-03-12T01:56:51;4.13;;;3.20;;
67869;SDS011;54673;52.262;6.830;2023-03-12T01:59:26;4.05;;;2.90;;
67869;SDS011;54673;52.262;6.830;2023-03-12T02:02:05;4.00;;;2.70;;
67869;SDS011;54673;52.262;6.830;2023-03-12T02:04:32;5.00;;;2.90;;
67869;SDS011;54673;52.262;6.830;2023-03-12T02:07:06;4.55;;;3.20;;
67869;SDS011;54673;52.262;6.830;2023-03-12T02:09:35;4.20;;;2.80;;
67869;SDS011;54673;52.262;6.830;2023-03-12T02:12:03;4.07;;;3.13;;
67869;SDS011;54673;52.262;6.830;2023-03-12T02:14:30;4.43;;;2.85;;
67869;SDS011;54673;52.262;6.830;2023-03-12T02:16:56;4.80;;;2.87;;
67869;SDS011;54673;52.262;6.830;2023-03-12T02:19:34;4.07;;;2.80;;
67869;SDS011;54673;52.262;6.830;2023-03-12T02:22:03;3.93;;;2.70;;
67869;SDS011;54673;52.262;6.830;2023-03-12T02:24:31;4.45;;;3.00;;
67869;SDS011;54673;52.262;6.830;2023-03-12T02:27:01;4.30;;;2.50;;
67869;SDS011;54673;52.262;6.830;2023-03-12T02:29:27;3.72;;;2.65;;
67869;SDS011;54673;52.262;6.830;2023-03-12T02:31:56;4.38;;;2.60;;
67869;SDS011;54673;52.262;6.830;2023-03-12T02:34:24;4.07;;;2.70;;
67869;SDS011;54673;52.262;6.830;2023-03-12T02:36:49;3.38;;;2.50;;
67869;SDS011;54673;52.262;6.830;2023-03-12T02:39:15;5.00;;;2.80;;
67869;SDS011;54673;52.262;6.830;2023-03-12T02:41:42;4.07;;;2.80;;
67869;SDS011;54673;52.262;6.830;2023-03-12T02:44:12;3.10;;;2.37;;
67869;SDS011;54673;52.262;6.830;2023-03-12T02:46:42;4.28;;;2.80;;
67869;SDS011;54673;52.262;6.830;2023-03-12T02:49:09;4.87;;;3.20;;
67869;SDS011;54673;52.262;6.830;2023-03-12T02:51:38;4.10;;;2.90;;
67869;SDS011;54673;52.262;6.830;2023-03-12T02:54:04;4.05;;;2.67;;
67869;SDS011;54673;52.262;6.830;2023-03-12T02:56:30;3.83;;;2.70;;
67869;SDS011;54673;52.262;6.830;2023-03-12T02:58:56;3.17;;;2.50;;
67869;SDS011;54673;52.262;6.830;2023-03-12T03:01:22;3.10;;;2.60;;
67869;SDS011;54673;52.262;6.830;2023-03-12T03:03:48;3.55;;;2.72;;
67869;SDS011;54673;52.262;6.830;2023-03-12T03:06:14;3.00;;;2.53;;
67869;SDS011;54673;52.262;6.830;2023-03-12T03:08:39;3.70;;;2.70;;
67869;SDS011;54673;52.262;6.830;2023-03-12T03:11:05;4.40;;;2.80;;
67869;SDS011;54673;52.262;6.830;2023-03-12T03:13:31;3.67;;;2.58;;
67869;SDS011;54673;52.262;6.830;2023-03-12T03:15:57;4.50;;;2.60;;
67869;SDS011;54673;52.262;6.830;2023-03-12T03:18:25;4.67;;;2.80;;
67869;SDS011;54673;52.262;6.830;2023-03-12T03:20:59;3.40;;;2.47;;
67869;SDS011;54673;52.262;6.830;2023-03-12T03:23:30;3.40;;;2.50;;
67869;SDS011;54673;52.262;6.830;2023-03-12T03:25:56;5.20;;;2.30;;
67869;SDS011;54673;52.262;6.830;2023-03-12T03:28:22;3.47;;;2.70;;
67869;SDS011;54673;52.262;6.830;2023-03-12T03:30:52;4.87;;;2.60;;
67869;SDS011;54673;52.262;6.830;2023-03-12T03:33:18;4.15;;;2.50;;
67869;SDS011;54673;52.262;6.830;2023-03-12T03:35:44;3.60;;;2.03;;
67869;SDS011;54673;52.262;6.830;2023-03-12T03:38:11;3.13;;;2.33;;
67869;SDS011;54673;52.262;6.830;2023-03-12T03:40:37;4.03;;;2.20;;
67869;SDS011;54673;52.262;6.830;2023-03-12T03:43:02;3.08;;;2.28;;
67869;SDS011;54673;52.262;6.830;2023-03-12T03:45:28;2.77;;;2.20;;
67869;SDS011;54673;52.262;6.830;2023-03-12T03:47:53;3.07;;;2.30;;
67869;SDS011;54673;52.262;6.830;2023-03-12T03:50:19;4.32;;;2.30;;
67869;SDS011;54673;52.262;6.830;2023-03-12T03:52:44;3.90;;;2.30;;
67869;SDS011;54673;52.262;6.830;2023-03-12T03:55:10;4.38;;;2.30;;
67869;SDS011;54673;52.262;6.830;2023-03-12T03:57:36;3.23;;;2.40;;
67869;SDS011;54673;52.262;6.830;2023-03-12T04:00:01;2.50;;;2.10;;
67869;SDS011;54673;52.262;6.830;2023-03-12T04:02:29;3.35;;;2.20;;
67869;SDS011;54673;52.262;6.830;2023-03-12T04:04:58;3.53;;;2.27;;
67869;SDS011;54673;52.262;6.830;2023-03-12T04:07:24;3.28;;;2.20;;
67869;SDS011;54673;52.262;6.830;2023-03-12T04:09:50;3.10;;;2.15;;
67869;SDS011;54673;52.262;6.830;2023-03-12T04:12:16;2.90;;;1.90;;
67869;SDS011;54673;52.262;6.830;2023-03-12T04:14:42;3.20;;;2.13;;
67869;SDS011;54673;52.262;6.830;2023-03-12T04:17:08;2.97;;;2.00;;
67869;SDS011;54673;52.262;6.830;2023-03-12T04:19:35;3.38;;;1.98;;
67869;SDS011;54673;52.262;6.830;2023-03-12T04:22:01;4.10;;;2.13;;
67869;SDS011;54673;52.262;6.830;2023-03-12T04:24:26;2.80;;;1.90;;
67869;SDS011;54673;52.262;6.830;2023-03-12T04:26:52;3.33;;;2.10;;
67869;SDS011;54673;52.262;6.830;2023-03-12T04:29:17;2.97;;;1.90;;
67869;SDS011;54673;52.262;6.830;2023-03-12T04:31:44;3.55;;;1.92;;
67869;SDS011;54673;52.262;6.830;2023-03-12T04:34:10;3.08;;;2.00;;
67869;SDS011;54673;52.262;6.830;2023-03-12T04:36:36;3.70;;;2.20;;
67869;SDS011;54673;52.262;6.830;2023-03-12T04:39:02;3.22;;;1.98;;
67869;SDS011;54673;52.262;6.830;2023-03-12T04:41:31;3.43;;;2.03;;
67869;SDS011;54673;52.262;6.830;2023-03-12T04:43:57;3.35;;;1.88;;
67869;SDS011;54673;52.262;6.830;2023-03-12T04:46:23;3.10;;;2.20;;
67869;SDS011;54673;52.262;6.830;2023-03-12T04:48:49;2.70;;;1.83;;
67869;SDS011;54673;52.262;6.830;2023-03-12T04:51:14;2.93;;;2.00;;
67869;SDS011;54673;52.262;6.830;2023-03-12T04:53:40;2.20;;;1.40;;
67869;SDS011;54673;52.262;6.830;2023-03-12T04:56:06;2.65;;;2.00;;
67869;SDS011;54673;52.262;6.830;2023-03-12T04:58:31;2.20;;;1.70;;
67869;SDS011;54673;52.262;6.830;2023-03-12T05:00:57;3.00;;;1.57;;
67869;SDS011;54673;52.262;6.830;2023-03-12T05:03:23;2.10;;;1.48;;
67869;SDS011;54673;52.262;6.830;2023-03-12T05:05:48;2.57;;;1.80;;
67869;SDS011;54673;52.262;6.830;2023-03-12T05:08:14;2.70;;;1.57;;
67869;SDS011;54673;52.262;6.830;2023-03-12T05:10:39;3.25;;;1.90;;
67869;SDS011;54673;52.262;6.830;2023-03-12T05:13:15;2.00;;;1.50;;
67869;SDS011;54673;52.262;6.830;2023-03-12T05:15:43;3.58;;;1.52;;
67869;SDS011;54673;52.262;6.830;2023-03-12T05:18:09;3.50;;;1.50;;
67869;SDS011;54673;52.262;6.830;2023-03-12T05:20:35;2.15;;;1.67;;
67869;SDS011;54673;52.262;6.830;2023-03-12T05:23:00;2.47;;;1.80;;
67869;SDS011;54673;52.262;6.830;2023-03-12T05:25:26;1.97;;;1.57;;
67869;SDS011;54673;52.262;6.830;2023-03-12T05:27:51;2.85;;;1.80;;
67869;SDS011;54673;52.262;6.830;2023-03-12T05:30:17;2.43;;;1.87;;
67869;SDS011;54673;52.262;6.830;2023-03-12T05:32:43;3.08;;;1.90;;
67869;SDS011;54673;52.262;6.830;2023-03-12T05:35:08;2.13;;;1.70;;
67869;SDS011;54673;52.262;6.830;2023-03-12T05:37:34;2.28;;;1.77;;
67869;SDS011;54673;52.262;6.830;2023-03-12T05:39:59;3.43;;;1.87;;
67869;SDS011;54673;52.262;6.830;2023-03-12T05:42:25;2.93;;;1.87;;
67869;SDS011;54673;52.262;6.830;2023-03-12T05:44:51;2.38;;;1.80;;
67869;SDS011;54673;52.262;6.830;2023-03-12T05:47:16;3.37;;;2.20;;
67869;SDS011;54673;52.262;6.830;2023-03-12T05:49:42;2.15;;;1.85;;
67869;SDS011;54673;52.262;6.830;2023-03-12T05:52:08;2.60;;;1.80;;
67869;SDS011;54673;52.262;6.830;2023-03-12T05:54:34;2.65;;;1.90;;
67869;SDS011;54673;52.262;6.830;2023-03-12T05:56:59;3.87;;;1.93;;
67869;SDS011;54673;52.262;6.830;2023-03-12T05:59:27;3.45;;;2.05;;
67869;SDS011;54673;52.262;6.830;2023-03-12T06:01:52;2.58;;;1.83;;
67869;SDS011;54673;52.262;6.830;2023-03-12T06:04:18;2.97;;;1.97;;
67869;SDS011;54673;52.262;6.830;2023-03-12T06:06:44;3.97;;;2.00;;
67869;SDS011;54673;52.262;6.830;2023-03-12T06:09:09;3.30;;;1.70;;
67869;SDS011;54673;52.262;6.830;2023-03-12T06:11:35;2.30;;;1.70;;
67869;SDS011;54673;52.262;6.830;2023-03-12T06:14:01;2.30;;;1.60;;
67869;SDS011;54673;52.262;6.830;2023-03-12T06:16:27;2.40;;;1.67;;
67869;SDS011;54673;52.262;6.830;2023-03-12T06:18:54;2.45;;;1.80;;
67869;SDS011;54673;52.262;6.830;2023-03-12T06:21:22;2.83;;;1.80;;
67869;SDS011;54673;52.262;6.830;2023-03-12T06:23:50;3.17;;;1.70;;
67869;SDS011;54673;52.262;6.830;2023-03-12T06:26:16;2.25;;;1.48;;
67869;SDS011;54673;52.262;6.830;2023-03-12T06:28:44;2.00;;;1.70;;
67869;SDS011;54673;52.262;6.830;2023-03-12T06:31:10;3.25;;;1.75;;
67869;SDS011;54673;52.262;6.830;2023-03-12T06:33:36;1.90;;;1.67;;
67869;SDS011;54673;52.262;6.830;2023-03-12T06:36:03;2.25;;;1.58;;
67869;SDS011;54673;52.262;6.830;2023-03-12T06:38:30;2.20;;;2.00;;
67869;SDS011;54673;52.262;6.830;2023-03-12T06:40:57;3.40;;;1.60;;
67869;SDS011;54673;52.262;6.830;2023-03-12T06:43:24;2.55;;;1.70;;
67869;SDS011;54673;52.262;6.830;2023-03-12T06:45:52;3.33;;;1.80;;
67869;SDS011;54673;52.262;6.830;2023-03-12T06:48:19;2.80;;;1.88;;
67869;SDS011;54673;52.262;6.830;2023-03-12T06:50:44;2.23;;;1.90;;
67869;SDS011;54673;52.262;6.830;2023-03-12T06:53:10;2.15;;;1.65;;
67869;SDS011;54673;52.262;6.830;2023-03-12T06:55:35;2.10;;;1.80;;
67869;SDS011;54673;52.262;6.830;2023-03-12T06:58:01;2.00;;;1.80;;
67869;SDS011;54673;52.262;6.830;2023-03-12T07:00:28;1.80;;;1.50;;
67869;SDS011;54673;52.262;6.830;2023-03-12T07:02:54;2.40;;;1.75;;
67869;SDS011;54673;52.262;6.830;2023-03-12T07:05:19;2.73;;;1.73;;
67869;SDS011;54673;52.262;6.830;2023-03-12T07:07:45;2.08;;;1.50;;
67869;SDS011;54673;52.262;6.830;2023-03-12T07:10:10;2.53;;;1.90;;
67869;SDS011;54673;52.262;6.830;2023-03-12T07:12:36;1.83;;;1.38;;
67869;SDS011;54673;52.262;6.830;2023-03-12T07:15:02;2.13;;;1.80;;
67869;SDS011;54673;52.262;6.830;2023-03-12T07:17:28;3.28;;;1.70;;
67869;SDS011;54673;52.262;6.830;2023-03-12T07:19:53;2.63;;;1.90;;
67869;SDS011;54673;52.262;6.830;2023-03-12T07:22:19;3.00;;;1.90;;
67869;SDS011;54673;52.262;6.830;2023-03-12T07:24:44;1.93;;;1.60;;
67869;SDS011;54673;52.262;6.830;2023-03-12T07:27:10;2.20;;;1.67;;
67869;SDS011;54673;52.262;6.830;2023-03-12T07:29:36;1.37;;;1.20;;
67869;SDS011;54673;52.262;6.830;2023-03-12T07:32:01;2.00;;;1.37;;
67869;SDS011;54673;52.262;6.830;2023-03-12T07:34:27;1.90;;;1.47;;
67869;SDS011;54673;52.262;6.830;2023-03-12T07:36:52;2.65;;;1.80;;
67869;SDS011;54673;52.262;6.830;2023-03-12T07:39:18;2.10;;;1.50;;
67869;SDS011;54673;52.262;6.830;2023-03-12T07:41:44;2.33;;;1.50;;
67869;SDS011;54673;52.262;6.830;2023-03-12T07:44:09;2.00;;;1.60;;
67869;SDS011;54673;52.262;6.830;2023-03-12T07:46:35;1.83;;;1.50;;
67869;SDS011;54673;52.262;6.830;2023-03-12T07:49:01;1.60;;;1.13;;
67869;SDS011;54673;52.262;6.830;2023-03-12T07:51:26;2.20;;;1.20;;
67869;SDS011;54673;52.262;6.830;2023-03-12T07:53:52;2.20;;;1.48;;
67869;SDS011;54673;52.262;6.830;2023-03-12T07:56:18;2.07;;;1.40;;
67869;SDS011;54673;52.262;6.830;2023-03-12T07:58:43;2.75;;;1.75;;
67869;SDS011;54673;52.262;6.830;2023-03-12T08:01:09;2.03;;;1.17;;
67869;SDS011;54673;52.262;6.830;2023-03-12T08:03:34;2.90;;;1.20;;
67869;SDS011;54673;52.262;6.830;2023-03-12T08:06:01;2.50;;;1.58;;
67869;SDS011;54673;52.262;6.830;2023-03-12T08:08:28;1.92;;;1.58;;
67869;SDS011;54673;52.262;6.830;2023-03-12T08:10:55;1.97;;;1.30;;
67869;SDS011;54673;52.262;6.830;2023-03-12T08:13:21;2.17;;;1.40;;
67869;SDS011;54673;52.262;6.830;2023-03-12T08:15:48;2.40;;;1.67;;
67869;SDS011;54673;52.262;6.830;2023-03-12T08:18:15;2.10;;;1.10;;
67869;SDS011;54673;52.262;6.830;2023-03-12T08:20:41;2.95;;;1.50;;
67869;SDS011;54673;52.262;6.830;2023-03-12T08:23:07;1.87;;;1.20;;
67869;SDS011;54673;52.262;6.830;2023-03-12T08:25:33;3.38;;;1.48;;
67869;SDS011;54673;52.262;6.830;2023-03-12T08:28:00;2.60;;;1.30;;
67869;SDS011;54673;52.262;6.830;2023-03-12T08:30:27;1.85;;;1.10;;
67869;SDS011;54673;52.262;6.830;2023-03-12T08:32:53;2.03;;;1.10;;
67869;SDS011;54673;52.262;6.830;2023-03-12T08:35:19;4.32;;;1.75;;
67869;SDS011;54673;52.262;6.830;2023-03-12T08:37:44;1.93;;;1.13;;
67869;SDS011;54673;52.262;6.830;2023-03-12T08:40:10;1.33;;;1.10;;
67869;SDS011;54673;52.262;6.830;2023-03-12T08:42:39;2.20;;;1.00;;
67869;SDS011;54673;52.262;6.830;2023-03-12T08:45:06;2.45;;;1.30;;
67869;SDS011;54673;52.262;6.830;2023-03-12T08:47:33;7.60;;;1.63;;
67869;SDS011;54673;52.262;6.830;2023-03-12T08:49:59;7.18;;;1.52;;
67869;SDS011;54673;52.262;6.830;2023-03-12T08:52:25;4.68;;;1.73;;
67869;SDS011;54673;52.262;6.830;2023-03-12T08:54:50;1.90;;;1.20;;
67869;SDS011;54673;52.262;6.830;2023-03-12T08:57:16;3.37;;;1.63;;
67869;SDS011;54673;52.262;6.830;2023-03-12T08:59:41;3.92;;;1.23;;
67869;SDS011;54673;52.262;6.830;2023-03-12T09:02:09;2.37;;;1.50;;
67869;SDS011;54673;52.262;6.830;2023-03-12T09:04:36;1.50;;;1.20;;
67869;SDS011;54673;52.262;6.830;2023-03-12T09:07:02;2.50;;;1.30;;
67869;SDS011;54673;52.262;6.830;2023-03-12T09:09:28;1.90;;;1.40;;
67869;SDS011;54673;52.262;6.830;2023-03-12T09:11:53;3.63;;;1.40;;
67869;SDS011;54673;52.262;6.830;2023-03-12T09:14:19;4.00;;;1.30;;
67869;SDS011;54673;52.262;6.830;2023-03-12T09:16:45;2.90;;;1.43;;
67869;SDS011;54673;52.262;6.830;2023-03-12T09:19:10;2.97;;;1.30;;
67869;SDS011;54673;52.262;6.830;2023-03-12T09:21:36;5.17;;;1.50;;
67869;SDS011;54673;52.262;6.830;2023-03-12T09:24:02;1.40;;;1.10;;
67869;SDS011;54673;52.262;6.830;2023-03-12T09:26:27;2.13;;;1.60;;
67869;SDS011;54673;52.262;6.830;2023-03-12T09:28:53;3.75;;;1.38;;
67869;SDS011;54673;52.262;6.830;2023-03-12T09:31:19;2.70;;;1.40;;
67869;SDS011;54673;52.262;6.830;2023-03-12T09:33:44;3.63;;;1.65;;
67869;SDS011;54673;52.262;6.830;2023-03-12T09:36:10;2.83;;;1.13;;
67869;SDS011;54673;52.262;6.830;2023-03-12T09:38:36;4.47;;;1.70;;
67869;SDS011;54673;52.262;6.830;2023-03-12T09:41:05;2.30;;;1.38;;
67869;SDS011;54673;52.262;6.830;2023-03-12T09:43:32;3.85;;;1.40;;
67869;SDS011;54673;52.262;6.830;2023-03-12T09:46:03;4.53;;;1.50;;
67869;SDS011;54673;52.262;6.830;2023-03-12T09:48:39;2.22;;;1.48;;
67869;SDS011;54673;52.262;6.830;2023-03-12T09:51:13;3.37;;;1.53;;
67869;SDS011;54673;52.262;6.830;2023-03-12T09:53:51;2.00;;;1.27;;
67869;SDS011;54673;52.262;6.830;2023-03-12T09:56:20;4.65;;;1.27;;
67869;SDS011;54673;52.262;6.830;2023-03-12T09:58:47;4.07;;;1.47;;
67869;SDS011;54673;52.262;6.830;2023-03-12T10:15:09;2.00;;;0.82;;
67869;SDS011;54673;52.262;6.830;2023-03-12T10:26:08;2.55;;;1.10;;
67869;SDS011;54673;52.262;6.830;2023-03-12T10:28:16;1.90;;;1.10;;
67869;SDS011;54673;52.262;6.830;2023-03-12T10:30:47;7.97;;;1.15;;
67869;SDS011;54673;52.262;6.830;2023-03-12T10:33:18;3.67;;;1.20;;
67869;SDS011;54673;52.262;6.830;2023-03-12T10:35:45;2.00;;;1.27;;
67869;SDS011;54673;52.262;6.830;2023-03-12T10:38:19;3.58;;;1.23;;
67869;SDS011;54673;52.262;6.830;2023-03-12T10:40:52;2.17;;;1.30;;
67869;SDS011;54673;52.262;6.830;2023-03-12T10:43:18;2.65;;;1.27;;
67869;SDS011;54673;52.262;6.830;2023-03-12T10:45:51;1.93;;;1.13;;
67869;SDS011;54673;52.262;6.830;2023-03-12T10:48:31;4.38;;;1.98;;
67869;SDS011;54673;52.262;6.830;2023-03-12T10:51:04;3.53;;;1.80;;
67869;SDS011;54673;52.262;6.830;2023-03-12T10:53:30;5.78;;;1.27;;
67869;SDS011;54673;52.262;6.830;2023-03-12T10:58:25;2.03;;;1.30;;
67869;SDS011;54673;52.262;6.830;2023-03-12T11:00:56;3.35;;;1.40;;
67869;SDS011;54673;52.262;6.830;2023-03-12T11:03:25;2.93;;;1.27;;
67869;SDS011;54673;52.262;6.830;2023-03-12T11:05:52;6.35;;;1.40;;
67869;SDS011;54673;52.262;6.830;2023-03-12T11:08:21;2.40;;;1.40;;
67869;SDS011;54673;52.262;6.830;2023-03-12T11:10:51;1.65;;;1.20;;
67869;SDS011;54673;52.262;6.830;2023-03-12T11:15:57;1.57;;;1.20;;
67869;SDS011;54673;52.262;6.830;2023-03-12T11:18:26;1.50;;;1.40;;
67869;SDS011;54673;52.262;6.830;2023-03-12T11:23:33;3.25;;;1.48;;
67869;SDS011;54673;52.262;6.830;2023-03-12T11:26:02;2.30;;;1.23;;
67869;SDS011;54673;52.262;6.830;2023-03-12T11:28:35;4.47;;;1.53;;
67869;SDS011;54673;52.262;6.830;2023-03-12T11:31:04;10.07;;;1.60;;
67869;SDS011;54673;52.262;6.830;2023-03-12T11:33:42;5.63;;;1.40;;
67869;SDS011;54673;52.262;6.830;2023-03-12T11:38:47;2.53;;;1.33;;
67869;SDS011;54673;52.262;6.830;2023-03-12T11:41:49;5.78;;;1.60;;
67869;SDS011;54673;52.262;6.830;2023-03-12T11:44:49;5.73;;;1.00;;
67869;SDS011;54673;52.262;6.830;2023-03-12T11:47:37;3.72;;;1.20;;
67869;SDS011;54673;52.262;6.830;2023-03-12T11:50:26;7.78;;;1.00;;
67869;SDS011;54673;52.262;6.830;2023-03-12T12:03:33;3.33;;;1.30;;
67869;SDS011;54673;52.262;6.830;2023-03-12T12:06:28;3.90;;;1.30;;
67869;SDS011;54673;52.262;6.830;2023-03-12T12:11:46;1.37;;;1.00;;
67869;SDS011;54673;52.262;6.830;2023-03-12T12:14:25;2.17;;;1.05;;
67869;SDS011;54673;52.262;6.830;2023-03-12T12:17:31;4.17;;;1.20;;
67869;SDS011;54673;52.262;6.830;2023-03-12T12:19:53;6.28;;;1.27;;
67869;SDS011;54673;52.262;6.830;2023-03-12T12:22:45;3.03;;;1.03;;
67869;SDS011;54673;52.262;6.830;2023-03-12T12:30:53;2.70;;;1.00;;
67869;SDS011;54673;52.262;6.830;2023-03-12T12:33:29;2.38;;;1.33;;
67869;SDS011;54673;52.262;6.830;2023-03-12T12:36:08;1.47;;;0.90;;
67869;SDS011;54673;52.262;6.830;2023-03-12T12:41:19;2.13;;;1.40;;
67869;SDS011;54673;52.262;6.830;2023-03-12T12:43:52;2.50;;;0.90;;
67869;SDS011;54673;52.262;6.830;2023-03-12T12:46:31;2.53;;;1.00;;
67869;SDS011;54673;52.262;6.830;2023-03-12T12:49:01;10.77;;;1.77;;
67869;SDS011;54673;52.262;6.830;2023-03-12T12:51:34;5.57;;;1.40;;
67869;SDS011;54673;52.262;6.830;2023-03-12T12:57:13;7.70;;;1.10;;
67869;SDS011;54673;52.262;6.830;2023-03-12T13:02:03;5.90;;;1.17;;
67869;SDS011;54673;52.262;6.830;2023-03-12T13:04:37;6.85;;;1.27;;
67869;SDS011;54673;52.262;6.830;2023-03-12T13:09:42;1.43;;;1.20;;
67869;SDS011;54673;52.262;6.830;2023-03-12T13:36:24;2.07;;;1.30;;
67869;SDS011;54673;52.262;6.830;2023-03-12T13:41:32;2.67;;;1.50;;
67869;SDS011;54673;52.262;6.830;2023-03-12T13:46:47;2.58;;;1.30;;
67869;SDS011;54673;52.262;6.830;2023-03-12T13:49:42;3.13;;;1.40;;
67869;SDS011;54673;52.262;6.830;2023-03-12T13:52:16;3.05;;;1.27;;
67869;SDS011;54673;52.262;6.830;2023-03-12T13:54:46;3.37;;;1.50;;
67869;SDS011;54673;52.262;6.830;2023-03-12T13:59:54;2.35;;;1.33;;
67869;SDS011;54673;52.262;6.830;2023-03-12T14:02:23;4.60;;;1.17;;
67869;SDS011;54673;52.262;6.830;2023-03-12T14:05:07;3.22;;;1.40;;
67869;SDS011;54673;52.262;6.830;2023-03-12T14:13:15;3.35;;;1.33;;
67869;SDS011;54673;52.262;6.830;2023-03-12T14:15:52;1.67;;;1.10;;
67869;SDS011;54673;52.262;6.830;2023-03-12T14:18:34;1.95;;;0.93;;
67869;SDS011;54673;52.262;6.830;2023-03-12T14:21:02;2.27;;;1.17;;
67869;SDS011;54673;52.262;6.830;2023-03-12T14:23:37;2.63;;;1.40;;
67869;SDS011;54673;52.262;6.830;2023-03-12T14:26:11;2.10;;;1.00;;
67869;SDS011;54673;52.262;6.830;2023-03-12T14:28:54;2.20;;;1.00;;
67869;SDS011;54673;52.262;6.830;2023-03-12T14:31:25;1.67;;;1.00;;
67869;SDS011;54673;52.262;6.830;2023-03-12T14:33:57;1.50;;;1.00;;
67869;SDS011;54673;52.262;6.830;2023-03-12T14:36:28;2.20;;;0.90;;
67869;SDS011;54673;52.262;6.830;2023-03-12T14:39:10;1.25;;;0.90;;
67869;SDS011;54673;52.262;6.830;2023-03-12T14:42:05;1.30;;;0.90;;
67869;SDS011;54673;52.262;6.830;2023-03-12T14:44:33;1.20;;;1.05;;
67869;SDS011;54673;52.262;6.830;2023-03-12T14:47:05;3.07;;;1.20;;
67869;SDS011;54673;52.262;6.830;2023-03-12T14:49:38;2.05;;;0.90;;
67869;SDS011;54673;52.262;6.830;2023-03-12T14:52:05;2.60;;;0.80;;
67869;SDS011;54673;52.262;6.830;2023-03-12T14:54:31;3.43;;;1.30;;
67869;SDS011;54673;52.262;6.830;2023-03-12T14:56:57;3.08;;;1.50;;
67869;SDS011;54673;52.262;6.830;2023-03-12T14:59:24;1.40;;;1.20;;
67869;SDS011;54673;52.262;6.830;2023-03-12T15:01:50;2.15;;;1.00;;
67869;SDS011;54673;52.262;6.830;2023-03-12T15:04:17;3.67;;;1.20;;
67869;SDS011;54673;52.262;6.830;2023-03-12T15:06:50;2.47;;;1.20;;
67869;SDS011;54673;52.262;6.830;2023-03-12T15:09:21;3.27;;;1.13;;
67869;SDS011;54673;52.262;6.830;2023-03-12T15:14:32;3.67;;;1.23;;
67869;SDS011;54673;52.262;6.830;2023-03-12T15:17:02;2.07;;;1.20;;
67869;SDS011;54673;52.262;6.830;2023-03-12T15:19:32;1.90;;;1.10;;
67869;SDS011;54673;52.262;6.830;2023-03-12T15:22:00;3.00;;;1.40;;
67869;SDS011;54673;52.262;6.830;2023-03-12T15:24:28;4.10;;;1.30;;
67869;SDS011;54673;52.262;6.830;2023-03-12T15:27:14;2.20;;;1.25;;
67869;SDS011;54673;52.262;6.830;2023-03-12T15:29:43;2.37;;;1.20;;
67869;SDS011;54673;52.262;6.830;2023-03-12T15:32:12;11.05;;;1.30;;
67869;SDS011;54673;52.262;6.830;2023-03-12T15:34:38;3.00;;;1.30;;
67869;SDS011;54673;52.262;6.830;2023-03-12T15:37:26;3.63;;;1.30;;
67869;SDS011;54673;52.262;6.830;2023-03-12T15:39:56;4.57;;;1.20;;
67869;SDS011;54673;52.262;6.830;2023-03-12T15:42:24;2.23;;;1.10;;
67869;SDS011;54673;52.262;6.830;2023-03-12T15:44:52;2.47;;;1.20;;
67869;SDS011;54673;52.262;6.830;2023-03-12T15:47:21;2.30;;;1.13;;
67869;SDS011;54673;52.262;6.830;2023-03-12T15:49:50;2.40;;;1.27;;
67869;SDS011;54673;52.262;6.830;2023-03-12T15:52:28;3.45;;;1.58;;
67869;SDS011;54673;52.262;6.830;2023-03-12T15:55:04;2.93;;;0.93;;
67869;SDS011;54673;52.262;6.830;2023-03-12T15:57:43;2.70;;;1.20;;
67869;SDS011;54673;52.262;6.830;2023-03-12T16:02:36;2.70;;;1.20;;
67869;SDS011;54673;52.262;6.830;2023-03-12T16:05:04;3.05;;;1.02;;
67869;SDS011;54673;52.262;6.830;2023-03-12T16:07:30;1.43;;;0.80;;
67869;SDS011;54673;52.262;6.830;2023-03-12T16:09:56;4.97;;;1.15;;
67869;SDS011;54673;52.262;6.830;2023-03-12T16:12:21;2.33;;;1.20;;
67869;SDS011;54673;52.262;6.830;2023-03-12T16:14:47;4.10;;;0.90;;
67869;SDS011;54673;52.262;6.830;2023-03-12T16:17:14;5.43;;;1.10;;
67869;SDS011;54673;52.262;6.830;2023-03-12T16:19:43;3.03;;;1.10;;
67869;SDS011;54673;52.262;6.830;2023-03-12T16:22:09;3.72;;;1.13;;
67869;SDS011;54673;52.262;6.830;2023-03-12T16:24:34;6.17;;;1.27;;
67869;SDS011;54673;52.262;6.830;2023-03-12T16:27:00;2.87;;;1.40;;
67869;SDS011;54673;52.262;6.830;2023-03-12T16:29:32;1.77;;;1.33;;
67869;SDS011;54673;52.262;6.830;2023-03-12T16:32:07;5.43;;;1.53;;
67869;SDS011;54673;52.262;6.830;2023-03-12T16:34:38;2.15;;;1.20;;
67869;SDS011;54673;52.262;6.830;2023-03-12T16:37:03;2.47;;;1.20;;
67869;SDS011;54673;52.262;6.830;2023-03-12T16:39:29;8.67;;;1.33;;
67869;SDS011;54673;52.262;6.830;2023-03-12T16:41:57;5.07;;;1.30;;
67869;SDS011;54673;52.262;6.830;2023-03-12T16:44:24;5.50;;;1.30;;